Hinesburg, VT (05461)

2:07 PM EDT on August 29, 2015 (GMT -0400)
KVTHINES4 | | Change Station
CLOSE
Current Station
Personal Weather Station
Location: Hinesburg, VT
Elevation: 344 ft
Nearby Weather Stations

Elev 344 ft 44.33 °N, 73.11 °W | Updated 7 seconds ago

Partly Cloudy
Partly Cloudy
82.8 °F
Feels Like 82 °F
N
1.6
Wind Variable Wind from West
Gusts 2.2 mph

Today
High -- | Low -- °F
--% Chance of Precip.
Yesterday
High -- | Low -- °F
Precip. -- in
6:11 AM 7:34 PM
Full, 100% visible
Pressure 30.12 in
Visibility 10.0 miles
Clouds Scattered Clouds 9000 ft
Heat Index 82 °F
Dew Point 57 °F
Humidity 41%
Rainfall 0.00 in
Snow Depth Not available.
UV 7 out of 12
Pollen 8.30 out of 12
Air Quality Not available.
Flu Activity Not available.
METAR KBTV 291754Z VRB05KT 10SM SCT090 25/13 A3012 RMK AO2 SLP198 T02500133 10256 20144 58018
Pressure 30.12 in
Visibility 10.0 miles
Clouds Scattered Clouds 9000 ft
Heat Index 82 °F
Dew Point 57 °F
Humidity 41%
Rainfall 0.00 in
Snow Depth Not available.
UV 7 out of 12
Pollen 8.30 out of 12
Air Quality Not available.
Flu Activity Not available.
METAR KBTV 291754Z VRB05KT 10SM SCT090 25/13 A3012 RMK AO2 SLP198 T02500133 10256 20144 58018

10-Day Weather Forecast

×

Almanac

Astronomy

Aug. 29, 2015 Rise Set
Actual Time
Civil Twilight
Nautical Twilight
Astronomical Twilight
Moon
Length of Visible Light
Length of Day
Tomorrow will be .
, % of the Moon is Illuminated

Today's Extremes

State Highs State Lows

Community

WunderPhotos

Upload Photos

1,850,750 photos uploaded!

WunderBlogs® & News

Nearby

Air Quality

  Air Quality AQ Index Pollutant
Not available.

Snow Depth

Station Depth Elevation

Earthquake Activity

City Distance Mag. Time & Date
Minimum magnitude displayed is 2.5.

Coastal Water Temperatures

Place Temperature

Stations

Nearby Weather Stations

Station Location Temp. Windchill Dew Point Humidity Wind Precip. Elev Updated Type